Time;durP1;ratioP1;P1;durP2;ratioP2;P2;SDS_P1;SDS_P2;PMS_P1;PMS_P2;Temp;Humidity;BMP_temperature;BMP_pressure;BME280_temperature;BME280_humidity;BME280_pressure;Samples;Min_cycle;Max_cycle;Signal;HPM_P1;HPM_P2
2023/04/19 00:00:51;;;;;;;9.05;8.13;;;;;;;;;;5084083;28;20500;-69
2023/04/19 00:03:17;;;;;;;9.13;8.27;;;;;;;;;;5083825;28;20203;-69
2023/04/19 00:05:45;;;;;;;9.27;8.40;;;;;;;;;;5083567;28;20578;-69
2023/04/19 00:08:11;;;;;;;10.40;8.68;;;;;;;;;;5076555;28;20231;-69
2023/04/19 00:10:38;;;;;;;9.95;8.90;;;;;;;;;;5078464;28;20216;-69
2023/04/19 00:13:05;;;;;;;9.27;8.38;;;;;;;;;;5078372;28;20468;-69
2023/04/19 00:15:31;;;;;;;11.80;8.50;;;;;;;;;;5078250;28;20258;-69
2023/04/19 00:17:57;;;;;;;9.43;8.45;;;;;;;;;;5078082;28;20224;-69
2023/04/19 00:20:23;;;;;;;8.93;8.10;;;;;;;;;;5078404;28;20209;-69
2023/04/19 00:22:51;;;;;;;9.35;8.45;;;;;;;;;;5078424;28;20212;-69
2023/04/19 00:25:17;;;;;;;9.15;8.35;;;;;;;;;;5078290;28;20216;-69
2023/04/19 00:27:43;;;;;;;9.35;8.35;;;;;;;;;;5078322;28;20236;-69
2023/04/19 00:30:10;;;;;;;10.25;8.57;;;;;;;;;;5078170;28;20216;-69
2023/04/19 00:32:36;;;;;;;10.77;9.68;;;;;;;;;;5077973;28;20212;-69
2023/04/19 00:35:03;;;;;;;9.52;8.63;;;;;;;;;;5078040;28;20216;-69
2023/04/19 00:37:29;;;;;;;9.80;8.23;;;;;;;;;;5077870;28;20542;-69
2023/04/19 00:39:57;;;;;;;16.75;9.05;;;;;;;;;;5078071;28;20544;-69
2023/04/19 00:42:23;;;;;;;14.25;9.20;;;;;;;;;;5077734;28;20215;-69
2023/04/19 00:44:49;;;;;;;9.40;8.40;;;;;;;;;;5077770;28;20216;-69
2023/04/19 00:47:16;;;;;;;10.48;8.60;;;;;;;;;;5077679;28;20212;-69
2023/04/19 00:49:42;;;;;;;11.48;8.27;;;;;;;;;;5078063;28;20216;-69
2023/04/19 00:52:08;;;;;;;9.70;8.80;;;;;;;;;;5077978;28;20546;-69
2023/04/19 00:54:35;;;;;;;10.95;9.00;;;;;;;;;;5077845;28;20212;-69
2023/04/19 00:57:02;;;;;;;11.15;9.57;;;;;;;;;;5077837;28;20235;-69
2023/04/19 00:59:30;;;;;;;10.35;8.90;;;;;;;;;;5077598;28;20309;-69
2023/04/19 01:01:56;;;;;;;10.27;8.75;;;;;;;;;;5077653;28;20527;-69
2023/04/19 01:04:23;;;;;;;11.07;9.13;;;;;;;;;;5077459;28;20208;-69
2023/04/19 01:06:50;;;;;;;10.18;9.00;;;;;;;;;;5077414;28;20480;-69
2023/04/19 01:09:16;;;;;;;12.70;9.38;;;;;;;;;;5078433;28;20225;-69
2023/04/19 01:11:42;;;;;;;11.85;9.52;;;;;;;;;;5080047;28;20212;-69
2023/04/19 01:14:10;;;;;;;10.25;9.10;;;;;;;;;;5080187;28;20223;-70
2023/04/19 01:16:37;;;;;;;9.98;8.60;;;;;;;;;;5077198;28;20539;-68
2023/04/19 01:19:04;;;;;;;13.45;10.25;;;;;;;;;;5077603;28;20505;-69
2023/04/19 01:21:31;;;;;;;10.88;9.88;;;;;;;;;;5077288;28;20217;-69
2023/04/19 01:23:58;;;;;;;11.18;9.30;;;;;;;;;;5073522;28;20471;-69
2023/04/19 01:26:25;;;;;;;15.23;10.23;;;;;;;;;;5078994;28;20216;-69
2023/04/19 01:28:51;;;;;;;9.32;8.43;;;;;;;;;;5076367;28;20259;-69
2023/04/19 01:31:17;;;;;;;11.13;9.48;;;;;;;;;;5077006;28;20293;-69
2023/04/19 01:33:43;;;;;;;12.60;9.27;;;;;;;;;;5077297;28;20216;-69
2023/04/19 01:36:10;;;;;;;13.80;10.13;;;;;;;;;;5077084;28;20216;-69
2023/04/19 01:38:36;;;;;;;10.68;9.60;;;;;;;;;;5076429;28;20258;-69
2023/04/19 01:41:04;;;;;;;10.45;9.27;;;;;;;;;;5076894;28;20498;-69
2023/04/19 01:43:30;;;;;;;10.40;9.30;;;;;;;;;;5077494;28;20581;-69
2023/04/19 01:45:56;;;;;;;10.85;9.25;;;;;;;;;;5076560;28;20528;-69
2023/04/19 01:48:22;;;;;;;10.30;9.30;;;;;;;;;;5076357;28;20284;-69
2023/04/19 01:50:49;;;;;;;12.93;9.95;;;;;;;;;;5076772;28;20578;-69
2023/04/19 01:53:15;;;;;;;12.13;10.23;;;;;;;;;;5076587;28;20555;-68
2023/04/19 01:55:42;;;;;;;10.52;9.43;;;;;;;;;;5076986;28;20212;-68
2023/04/19 01:58:09;;;;;;;11.65;9.13;;;;;;;;;;5076666;28;20547;-68
2023/04/19 02:00:36;;;;;;;11.40;9.80;;;;;;;;;;5076956;28;20407;-68
2023/04/19 02:03:02;;;;;;;14.00;10.18;;;;;;;;;;5076457;28;20213;-69
2023/04/19 02:05:28;;;;;;;16.60;9.85;;;;;;;;;;5076313;28;20220;-68
2023/04/19 02:07:54;;;;;;;13.25;10.02;;;;;;;;;;5080382;28;20200;-69
2023/04/19 02:10:21;;;;;;;10.90;9.90;;;;;;;;;;5081937;28;20267;-69
2023/04/19 02:12:47;;;;;;;11.63;10.00;;;;;;;;;;5081794;28;20423;-69
2023/04/19 02:15:15;;;;;;;11.45;10.27;;;;;;;;;;5081647;28;20196;-69
2023/04/19 02:17:41;;;;;;;12.38;9.60;;;;;;;;;;5081791;28;20212;-69
2023/04/19 02:20:08;;;;;;;12.38;10.43;;;;;;;;;;5081825;28;20217;-69
2023/04/19 02:22:34;;;;;;;12.02;10.60;;;;;;;;;;5073817;28;20550;-69
2023/04/19 02:25:01;;;;;;;11.30;10.05;;;;;;;;;;5081672;28;20392;-69
2023/04/19 02:27:27;;;;;;;11.50;10.13;;;;;;;;;;5081331;28;20243;-69
2023/04/19 02:29:53;;;;;;;13.95;9.30;;;;;;;;;;5081477;28;20199;-69
2023/04/19 02:32:21;;;;;;;10.70;9.63;;;;;;;;;;5081815;28;20388;-69
2023/04/19 02:34:47;;;;;;;11.63;10.43;;;;;;;;;;5081811;28;20378;-69
2023/04/19 02:37:13;;;;;;;11.75;10.32;;;;;;;;;;5081364;28;20374;-69
2023/04/19 02:39:41;;;;;;;11.90;10.65;;;;;;;;;;5082507;28;20212;-69
2023/04/19 02:42:07;;;;;;;13.43;10.35;;;;;;;;;;5085348;28;20260;-69
2023/04/19 02:44:33;;;;;;;11.82;10.52;;;;;;;;;;5085359;28;20508;-69
2023/04/19 02:47:00;;;;;;;12.23;9.63;;;;;;;;;;5085454;28;20527;-69
2023/04/19 02:49:27;;;;;;;12.13;10.80;;;;;;;;;;5085412;28;20196;-69
2023/04/19 02:51:53;;;;;;;12.57;10.50;;;;;;;;;;5085483;28;20203;-69
2023/04/19 02:54:20;;;;;;;11.60;10.50;;;;;;;;;;5085368;28;20329;-69
2023/04/19 02:56:46;;;;;;;12.88;10.80;;;;;;;;;;5085177;28;20431;-69
2023/04/19 02:59:12;;;;;;;11.73;10.48;;;;;;;;;;5084910;28;20228;-69
2023/04/19 03:01:38;;;;;;;11.65;10.10;;;;;;;;;;5085240;28;20196;-69
2023/04/19 03:04:05;;;;;;;11.02;9.90;;;;;;;;;;5085105;28;20204;-69
2023/04/19 03:06:32;;;;;;;11.07;9.68;;;;;;;;;;5084932;28;20504;-69
2023/04/19 03:08:59;;;;;;;12.85;11.48;;;;;;;;;;5085126;28;20234;-69
2023/04/19 03:11:25;;;;;;;12.30;10.70;;;;;;;;;;5085006;28;20215;-69
2023/04/19 03:13:51;;;;;;;13.57;10.88;;;;;;;;;;5084906;28;20205;-69
2023/04/19 03:16:18;;;;;;;12.20;10.40;;;;;;;;;;5084768;28;20197;-69
2023/04/19 03:18:44;;;;;;;12.48;10.85;;;;;;;;;;5085322;28;20216;-69
2023/04/19 03:21:10;;;;;;;13.95;10.63;;;;;;;;;;5084891;28;20210;-69
2023/04/19 03:23:38;;;;;;;12.75;10.65;;;;;;;;;;5076632;28;20203;-69
2023/04/19 03:26:04;;;;;;;11.75;10.27;;;;;;;;;;5084797;28;20238;-69
2023/04/19 03:28:30;;;;;;;10.43;9.38;;;;;;;;;;5084493;28;20453;-69
2023/04/19 03:30:56;;;;;;;12.50;11.20;;;;;;;;;;5085105;28;20405;-69
2023/04/19 03:33:23;;;;;;;12.52;10.68;;;;;;;;;;5084676;28;20425;-69
2023/04/19 03:35:50;;;;;;;14.05;10.30;;;;;;;;;;5084667;28;20504;-69
2023/04/19 03:38:16;;;;;;;13.32;10.85;;;;;;;;;;5084230;28;20219;-69
2023/04/19 03:40:44;;;;;;;13.85;11.23;;;;;;;;;;5084465;28;20245;-69
2023/04/19 03:43:10;;;;;;;13.32;10.50;;;;;;;;;;5084599;28;20204;-69
2023/04/19 03:45:36;;;;;;;13.70;12.00;;;;;;;;;;5084615;28;20249;-69
2023/04/19 03:48:02;;;;;;;12.55;11.25;;;;;;;;;;5084196;28;20212;-69
2023/04/19 03:50:29;;;;;;;12.07;10.60;;;;;;;;;;5084403;28;20488;-69
2023/04/19 03:52:55;;;;;;;14.52;11.13;;;;;;;;;;5084407;28;20581;-69
2023/04/19 03:55:21;;;;;;;12.40;11.05;;;;;;;;;;5084172;28;20394;-69
2023/04/19 03:57:49;;;;;;;14.20;11.43;;;;;;;;;;5084106;28;20196;-69
2023/04/19 04:00:15;;;;;;;19.48;10.50;;;;;;;;;;5084021;28;20212;-69
2023/04/19 04:02:41;;;;;;;12.05;10.60;;;;;;;;;;5084249;28;20258;-68
2023/04/19 04:05:08;;;;;;;13.65;11.15;;;;;;;;;;5084367;28;20378;-68
2023/04/19 04:07:34;;;;;;;11.95;10.75;;;;;;;;;;5083890;28;20211;-68
2023/04/19 04:10:00;;;;;;;14.25;10.75;;;;;;;;;;5083991;28;20201;-68
2023/04/19 04:12:26;;;;;;;16.95;10.70;;;;;;;;;;5084077;28;20508;-68
2023/04/19 04:14:54;;;;;;;14.00;10.40;;;;;;;;;;5083893;28;20598;-69
2023/04/19 04:17:21;;;;;;;15.75;11.65;;;;;;;;;;5083846;28;20195;-69
2023/04/19 04:19:47;;;;;;;14.25;12.45;;;;;;;;;;5084106;28;20212;-69
2023/04/19 04:22:14;;;;;;;13.60;11.35;;;;;;;;;;5084119;28;20484;-69
2023/04/19 04:24:41;;;;;;;14.35;11.50;;;;;;;;;;5075769;28;20275;-69
2023/04/19 04:27:08;;;;;;;13.63;11.70;;;;;;;;;;5084077;28;20201;-69
2023/04/19 04:29:35;;;;;;;13.43;11.90;;;;;;;;;;5084003;28;20204;-69
2023/04/19 04:32:03;;;;;;;14.07;11.85;;;;;;;;;;5083983;28;20400;-69
2023/04/19 04:34:29;;;;;;;12.80;11.57;;;;;;;;;;5083576;28;20231;-69
2023/04/19 04:36:56;;;;;;;16.75;11.23;;;;;;;;;;5083560;28;20196;-70
2023/04/19 04:39:23;;;;;;;12.57;11.25;;;;;;;;;;5083511;28;20541;-70
2023/04/19 04:41:50;;;;;;;14.65;12.60;;;;;;;;;;5083618;28;20196;-70
2023/04/19 04:44:17;;;;;;;13.75;11.30;;;;;;;;;;5083581;28;20234;-70
2023/04/19 04:46:43;;;;;;;15.52;12.45;;;;;;;;;;5083499;28;20200;-70
2023/04/19 04:49:10;;;;;;;13.55;11.48;;;;;;;;;;5083618;28;20193;-70
2023/04/19 04:51:37;;;;;;;15.07;11.57;;;;;;;;;;5083233;28;20204;-69
2023/04/19 04:54:04;;;;;;;13.48;11.10;;;;;;;;;;5083621;28;20306;-69
2023/04/19 04:56:30;;;;;;;12.65;11.25;;;;;;;;;;5083045;28;20504;-69
2023/04/19 04:58:56;;;;;;;11.75;10.52;;;;;;;;;;5083089;28;20220;-69
2023/04/19 05:01:23;;;;;;;13.43;10.90;;;;;;;;;;5083027;28;20196;-69
2023/04/19 05:03:49;;;;;;;15.77;11.73;;;;;;;;;;5082319;28;20197;-69
2023/04/19 05:06:17;;;;;;;12.15;10.32;;;;;;;;;;5082806;28;20204;-69
2023/04/19 05:08:43;;;;;;;18.40;13.85;;;;;;;;;;5083318;28;20196;-69
2023/04/19 05:11:10;;;;;;;14.88;13.32;;;;;;;;;;5083274;28;20405;-69
2023/04/19 05:13:36;;;;;;;15.68;12.68;;;;;;;;;;5082900;28;20542;-69
2023/04/19 05:16:02;;;;;;;15.80;12.57;;;;;;;;;;5082953;28;20516;-69
2023/04/19 05:18:28;;;;;;;14.85;13.25;;;;;;;;;;5082600;28;20516;-69
2023/04/19 05:20:56;;;;;;;13.05;11.70;;;;;;;;;;5082685;28;20404;-69
2023/04/19 05:23:24;;;;;;;14.45;12.95;;;;;;;;;;5082845;28;20196;-69
2023/04/19 05:25:50;;;;;;;17.25;12.85;;;;;;;;;;5082727;28;20275;-69
2023/04/19 05:28:16;;;;;;;14.35;12.85;;;;;;;;;;5082532;28;20216;-69
2023/04/19 05:30:42;;;;;;;14.10;12.60;;;;;;;;;;5082844;28;20415;-69
2023/04/19 05:33:09;;;;;;;13.93;12.20;;;;;;;;;;5082659;28;20487;-69
2023/04/19 05:35:35;;;;;;;17.13;12.73;;;;;;;;;;5082458;28;20246;-70
2023/04/19 05:38:01;;;;;;;17.58;12.82;;;;;;;;;;5082529;28;20242;-69
2023/04/19 05:40:29;;;;;;;17.63;13.02;;;;;;;;;;5082605;28;20274;-69
2023/04/19 05:42:55;;;;;;;17.83;14.00;;;;;;;;;;5082311;28;20465;-69
2023/04/19 05:45:22;;;;;;;14.82;12.48;;;;;;;;;;5082036;28;20200;-69
2023/04/19 05:47:48;;;;;;;14.40;12.82;;;;;;;;;;5082117;28;20200;-69
2023/04/19 05:50:16;;;;;;;15.38;13.00;;;;;;;;;;5082349;28;20209;-69
2023/04/19 05:52:43;;;;;;;16.83;12.85;;;;;;;;;;5082247;28;20200;-69
2023/04/19 05:55:09;;;;;;;15.38;11.98;;;;;;;;;;5081970;28;20204;-69
2023/04/19 05:57:37;;;;;;;14.48;12.95;;;;;;;;;;5082018;28;20207;-69
2023/04/19 06:00:04;;;;;;;15.93;12.50;;;;;;;;;;5082441;28;20220;-69
2023/04/19 06:02:30;;;;;;;13.35;11.93;;;;;;;;;;5081869;28;20211;-69
2023/04/19 06:04:57;;;;;;;16.52;13.20;;;;;;;;;;5082273;28;20211;-69
2023/04/19 06:07:23;;;;;;;13.43;12.02;;;;;;;;;;5081896;28;20398;-69
2023/04/19 06:09:49;;;;;;;17.48;13.40;;;;;;;;;;5082296;28;20461;-70
2023/04/19 06:12:16;;;;;;;14.20;11.98;;;;;;;;;;5082141;28;20465;-70
2023/04/19 06:14:43;;;;;;;13.13;11.30;;;;;;;;;;5081629;28;20242;-70
2023/04/19 06:17:10;;;;;;;15.10;13.55;;;;;;;;;;5081903;28;20212;-69
2023/04/19 06:19:36;;;;;;;13.90;12.48;;;;;;;;;;5081664;28;20330;-69
2023/04/19 06:22:02;;;;;;;13.73;12.25;;;;;;;;;;5082044;28;20196;-69
2023/04/19 06:24:28;;;;;;;13.50;11.80;;;;;;;;;;5081859;28;20504;-69
2023/04/19 06:26:55;;;;;;;12.13;10.93;;;;;;;;;;5081682;28;20376;-70
2023/04/19 06:29:23;;;;;;;12.57;11.27;;;;;;;;;;5081928;28;20666;-69
2023/04/19 06:31:50;;;;;;;15.52;13.73;;;;;;;;;;5073972;28;20211;-69
2023/04/19 06:34:16;;;;;;;13.35;11.68;;;;;;;;;;5082073;28;20203;-69
2023/04/19 06:36:43;;;;;;;13.18;11.88;;;;;;;;;;5081886;28;20204;-69
2023/04/19 06:39:09;;;;;;;15.18;12.43;;;;;;;;;;5081648;28;20208;-69
2023/04/19 06:41:35;;;;;;;15.55;12.85;;;;;;;;;;5082041;28;20223;-70
2023/04/19 06:44:02;;;;;;;15.88;12.65;;;;;;;;;;5081566;28;20488;-69
2023/04/19 06:46:28;;;;;;;14.00;12.52;;;;;;;;;;5081927;28;20207;-69
2023/04/19 06:48:56;;;;;;;14.90;12.57;;;;;;;;;;5081807;28;20196;-69
2023/04/19 06:51:22;;;;;;;15.38;12.75;;;;;;;;;;5082078;28;20193;-69
2023/04/19 06:53:49;;;;;;;15.50;12.32;;;;;;;;;;5074004;28;20204;-69
2023/04/19 06:56:15;;;;;;;13.18;11.65;;;;;;;;;;5082131;28;20204;-69
2023/04/19 06:58:41;;;;;;;15.52;12.73;;;;;;;;;;5082119;28;20207;-69
2023/04/19 07:01:08;;;;;;;15.52;12.55;;;;;;;;;;5081710;28;20280;-69
2023/04/19 07:03:34;;;;;;;13.02;11.63;;;;;;;;;;5082044;28;20204;-69
2023/04/19 07:06:01;;;;;;;13.80;11.07;;;;;;;;;;5081726;28;20292;-69
2023/04/19 07:08:28;;;;;;;12.98;10.55;;;;;;;;;;5081824;28;20231;-70
2023/04/19 07:10:55;;;;;;;12.80;10.65;;;;;;;;;;5082203;28;20192;-69
2023/04/19 07:13:21;;;;;;;12.95;9.90;;;;;;;;;;5081674;28;20208;-69
2023/04/19 07:15:47;;;;;;;12.88;9.80;;;;;;;;;;5081767;28;20196;-69
2023/04/19 07:18:15;;;;;;;12.60;9.63;;;;;;;;;;5081821;28;20204;-69
2023/04/19 07:20:43;;;;;;;13.07;9.77;;;;;;;;;;5081595;28;20232;-69
2023/04/19 07:23:11;;;;;;;15.05;9.98;;;;;;;;;;5081786;28;20197;-70
2023/04/19 07:25:37;;;;;;;11.30;9.38;;;;;;;;;;5082232;28;20531;-69
2023/04/19 07:28:03;;;;;;;10.27;9.27;;;;;;;;;;5085131;28;20539;-69
2023/04/19 07:30:30;;;;;;;10.05;9.05;;;;;;;;;;5084811;28;20205;-69
2023/04/19 07:32:56;;;;;;;9.60;8.65;;;;;;;;;;5084942;28;20313;-69
2023/04/19 07:35:22;;;;;;;11.32;9.32;;;;;;;;;;5083787;28;20267;-69
2023/04/19 07:37:49;;;;;;;10.48;9.48;;;;;;;;;;5078597;28;20197;-69
2023/04/19 07:40:16;;;;;;;11.70;9.52;;;;;;;;;;5081242;28;20219;-69
2023/04/19 07:42:43;;;;;;;13.43;9.75;;;;;;;;;;5084587;28;20197;-69
2023/04/19 07:45:09;;;;;;;10.68;9.05;;;;;;;;;;5085174;28;20197;-69
2023/04/19 07:47:36;;;;;;;10.05;9.07;;;;;;;;;;5084418;28;20267;-69
2023/04/19 07:50:04;;;;;;;12.60;9.43;;;;;;;;;;5085213;28;20200;-69
2023/04/19 07:52:30;;;;;;;9.40;8.40;;;;;;;;;;5084991;28;20204;-69
2023/04/19 07:54:57;;;;;;;10.55;8.75;;;;;;;;;;5084686;28;20434;-69
2023/04/19 07:57:24;;;;;;;10.40;9.23;;;;;;;;;;5084473;28;20523;-69
2023/04/19 07:59:53;;;;;;;9.70;8.70;;;;;;;;;;5084510;28;20234;-69
2023/04/19 08:02:19;;;;;;;10.10;8.65;;;;;;;;;;5084635;28;20558;-69
2023/04/19 08:04:47;;;;;;;8.98;8.07;;;;;;;;;;5084521;28;20422;-69
2023/04/19 08:07:13;;;;;;;10.82;9.07;;;;;;;;;;5084276;28;20224;-69
2023/04/19 08:09:39;;;;;;;12.23;9.80;;;;;;;;;;5084245;28;20522;-69
2023/04/19 08:12:05;;;;;;;11.27;9.52;;;;;;;;;;5084738;28;20234;-69
2023/04/19 08:14:33;;;;;;;10.40;9.20;;;;;;;;;;5084405;28;20204;-69
2023/04/19 08:16:59;;;;;;;12.57;9.65;;;;;;;;;;5084210;28;20203;-69
2023/04/19 08:19:26;;;;;;;14.00;8.90;;;;;;;;;;5084288;28;20387;-59
2023/04/19 08:21:52;;;;;;;10.85;8.88;;;;;;;;;;5083503;28;20396;-60
2023/04/19 08:24:18;;;;;;;10.45;8.82;;;;;;;;;;5084166;28;20287;-60
2023/04/19 08:26:52;;;;;;;11.20;9.18;;;;;;;;;;5083312;28;20508;-59
2023/04/19 08:29:18;;;;;;;9.30;8.40;;;;;;;;;;5083628;28;20681;-59
2023/04/19 08:31:46;;;;;;;9.20;8.13;;;;;;;;;;5083426;28;20212;-60
2023/04/19 08:34:12;;;;;;;9.02;8.15;;;;;;;;;;5083421;28;20245;-60
2023/04/19 08:36:38;;;;;;;8.95;8.15;;;;;;;;;;5082900;28;20205;-60
2023/04/19 08:39:04;;;;;;;9.13;8.25;;;;;;;;;;5083324;28;20196;-60
2023/04/19 08:41:31;;;;;;;8.43;7.55;;;;;;;;;;5080569;28;20220;-60
2023/04/19 08:43:57;;;;;;;7.88;7.20;;;;;;;;;;5083424;28;20209;-61
2023/04/19 08:46:25;;;;;;;8.43;7.53;;;;;;;;;;5083114;28;20204;-61
2023/04/19 08:48:54;;;;;;;7.32;6.72;;;;;;;;;;5083602;28;20500;-61
2023/04/19 08:51:20;;;;;;;8.15;7.35;;;;;;;;;;5080724;28;20222;-61
2023/04/19 08:53:48;;;;;;;7.43;6.72;;;;;;;;;;5082807;28;20249;-61
2023/04/19 08:56:14;;;;;;;8.40;7.60;;;;;;;;;;5083426;28;20196;-61
2023/04/19 08:58:41;;;;;;;8.82;7.30;;;;;;;;;;5083472;28;20417;-61
2023/04/19 09:01:07;;;;;;;10.02;7.20;;;;;;;;;;5083166;28;20559;-62
2023/04/19 09:03:35;;;;;;;8.57;7.57;;;;;;;;;;5082858;28;20193;-61
2023/04/19 09:06:02;;;;;;;12.05;8.35;;;;;;;;;;5083263;28;20279;-61
2023/04/19 09:08:29;;;;;;;10.63;8.10;;;;;;;;;;5082980;28;20207;-61
2023/04/19 09:10:56;;;;;;;9.73;8.32;;;;;;;;;;5082872;28;20193;-61
2023/04/19 09:13:23;;;;;;;11.25;8.35;;;;;;;;;;5082613;28;20267;-61
2023/04/19 09:15:50;;;;;;;9.70;7.32;;;;;;;;;;5082712;28;20299;-61
2023/04/19 09:18:16;;;;;;;8.20;7.40;;;;;;;;;;5082570;28;20196;-61
2023/04/19 09:20:43;;;;;;;7.95;7.13;;;;;;;;;;5082440;28;20224;-61
2023/04/19 09:23:12;;;;;;;8.35;7.55;;;;;;;;;;5082898;28;20204;-61
2023/04/19 09:25:38;;;;;;;7.85;7.10;;;;;;;;;;5082860;28;20200;-61
2023/04/19 09:28:11;;;;;;;7.95;7.07;;;;;;;;;;5082580;28;20223;-61
2023/04/19 09:30:38;;;;;;;7.30;6.60;;;;;;;;;;5082644;28;20196;-61
2023/04/19 09:33:04;;;;;;;7.20;6.50;;;;;;;;;;5082810;28;20526;-61
2023/04/19 09:35:40;;;;;;;7.97;6.15;;;;;;;;;;5082718;28;20196;-61
2023/04/19 09:38:06;;;;;;;7.57;6.72;;;;;;;;;;5075772;28;20410;-61
2023/04/19 09:40:34;;;;;;;7.18;6.47;;;;;;;;;;5082623;28;20540;-61
2023/04/19 09:43:00;;;;;;;9.07;6.80;;;;;;;;;;5074524;28;20202;-61
2023/04/19 09:45:26;;;;;;;8.10;6.57;;;;;;;;;;5082660;28;20204;-61
2023/04/19 09:48:03;;;;;;;9.23;7.70;;;;;;;;;;5082125;28;20207;-61
2023/04/19 09:50:29;;;;;;;8.48;7.55;;;;;;;;;;5082480;28;20495;-61
2023/04/19 09:52:57;;;;;;;8.07;7.25;;;;;;;;;;5082541;28;20426;-61
2023/04/19 09:55:23;;;;;;;9.35;8.35;;;;;;;;;;5082499;28;20567;-61
2023/04/19 09:57:51;;;;;;;9.73;7.45;;;;;;;;;;5082025;28;20215;-62
2023/04/19 10:00:18;;;;;;;8.45;7.57;;;;;;;;;;5082515;28;20196;-62
2023/04/19 10:02:46;;;;;;;8.90;7.97;;;;;;;;;;5082333;28;20196;-61
2023/04/19 10:05:15;;;;;;;8.40;7.35;;;;;;;;;;5082334;28;20263;-61
2023/04/19 10:07:41;;;;;;;8.77;7.00;;;;;;;;;;5082130;28;20240;-61
2023/04/19 10:10:08;;;;;;;7.93;7.13;;;;;;;;;;5082112;28;20407;-61
2023/04/19 10:12:35;;;;;;;7.90;7.07;;;;;;;;;;5082644;28;20515;-61
2023/04/19 10:15:03;;;;;;;7.68;6.95;;;;;;;;;;5074401;28;20465;-61
2023/04/19 10:17:30;;;;;;;8.40;7.70;;;;;;;;;;5082127;28;20196;-61
2023/04/19 10:19:59;;;;;;;8.52;7.63;;;;;;;;;;5082049;28;20203;-61
2023/04/19 10:22:25;;;;;;;7.80;7.07;;;;;;;;;;5082122;28;20226;-61
2023/04/19 10:25:16;;;;;;;8.93;7.47;;;;;;;;;;5081887;28;20215;-61
2023/04/19 10:27:44;;;;;;;9.88;7.75;;;;;;;;;;5071123;28;20227;-61
2023/04/19 10:30:18;;;;;;;9.02;7.40;;;;;;;;;;5082061;28;20249;-61
2023/04/19 10:32:45;;;;;;;8.43;7.60;;;;;;;;;;5082093;28;20204;-61
2023/04/19 10:35:17;;;;;;;9.75;7.45;;;;;;;;;;5082122;28;20286;-61
2023/04/19 10:38:02;;;;;;;7.55;6.85;;;;;;;;;;5081775;28;20396;-61
2023/04/19 10:40:43;;;;;;;8.57;7.50;;;;;;;;;;5081930;28;20200;-61
2023/04/19 10:43:16;;;;;;;7.45;6.68;;;;;;;;;;5074535;28;20231;-61
2023/04/19 10:45:44;;;;;;;8.10;7.30;;;;;;;;;;5081669;28;20475;-61
2023/04/19 10:48:25;;;;;;;9.40;7.30;;;;;;;;;;5081707;28;20202;-61
2023/04/19 10:50:57;;;;;;;8.82;6.72;;;;;;;;;;5081575;28;20204;-61
2023/04/19 10:53:42;;;;;;;8.25;7.30;;;;;;;;;;5081161;28;20260;-61
2023/04/19 10:56:09;;;;;;;7.60;7.00;;;;;;;;;;5073904;28;20206;-60
2023/04/19 10:58:50;;;;;;;10.98;6.97;;;;;;;;;;5074431;28;20225;-60
2023/04/19 11:01:31;;;;;;;8.30;7.32;;;;;;;;;;5075689;28;20231;-59
2023/04/19 11:03:59;;;;;;;8.95;7.45;;;;;;;;;;5078021;28;20236;-60
2023/04/19 11:06:26;;;;;;;6.97;6.38;;;;;;;;;;5079201;28;20200;-60
2023/04/19 11:08:53;;;;;;;8.77;7.07;;;;;;;;;;5079745;28;20236;-59
2023/04/19 11:11:20;;;;;;;7.40;6.63;;;;;;;;;;5079780;28;20280;-60
2023/04/19 11:13:47;;;;;;;8.65;6.93;;;;;;;;;;5080099;28;20555;-61
2023/04/19 11:16:13;;;;;;;7.20;6.38;;;;;;;;;;5079882;28;20215;-61
2023/04/19 11:18:39;;;;;;;7.65;6.57;;;;;;;;;;5080285;28;20220;-61
2023/04/19 11:21:07;;;;;;;9.23;7.28;;;;;;;;;;5080806;28;20453;-60
2023/04/19 11:23:33;;;;;;;8.38;7.53;;;;;;;;;;5080439;28;20565;-61
2023/04/19 11:25:59;;;;;;;10.05;8.23;;;;;;;;;;5080405;28;20222;-61
2023/04/19 11:28:26;;;;;;;9.27;8.32;;;;;;;;;;5081086;28;20582;-61
2023/04/19 11:30:52;;;;;;;9.27;8.38;;;;;;;;;;5079779;28;20212;-63
2023/04/19 11:33:23;;;;;;;10.32;8.73;;;;;;;;;;5079278;28;20269;-60
2023/04/19 11:35:50;;;;;;;10.18;8.20;;;;;;;;;;5079249;28;20216;-61
2023/04/19 11:38:17;;;;;;;9.95;8.38;;;;;;;;;;5079806;28;20570;-61
2023/04/19 11:40:43;;;;;;;8.93;8.10;;;;;;;;;;5078756;28;20542;-63
2023/04/19 11:43:10;;;;;;;9.15;8.23;;;;;;;;;;5075115;28;20503;-59
2023/04/19 11:45:37;;;;;;;14.48;9.50;;;;;;;;;;5082318;28;20212;-60
2023/04/19 11:48:04;;;;;;;10.02;8.90;;;;;;;;;;5081601;28;20299;-60
2023/04/19 11:50:31;;;;;;;11.27;9.00;;;;;;;;;;5081847;28;20406;-60
2023/04/19 11:52:57;;;;;;;13.75;9.77;;;;;;;;;;5081631;28;20208;-60
2023/04/19 11:55:25;;;;;;;9.55;8.60;;;;;;;;;;5082095;28;20214;-60
2023/04/19 11:57:51;;;;;;;9.32;8.43;;;;;;;;;;5079755;28;20220;-61
2023/04/19 12:00:27;;;;;;;10.93;9.73;;;;;;;;;;5074717;28;20216;-60
2023/04/19 12:02:54;;;;;;;10.80;9.45;;;;;;;;;;5076386;28;20277;-60
2023/04/19 12:05:20;;;;;;;11.18;9.18;;;;;;;;;;5078544;28;20215;-60
2023/04/19 12:08:02;;;;;;;12.10;10.27;;;;;;;;;;5078993;28;20547;-60
2023/04/19 12:10:30;;;;;;;13.23;10.27;;;;;;;;;;5079299;28;20283;-60
2023/04/19 12:12:56;;;;;;;13.25;9.73;;;;;;;;;;5079346;28;20219;-59
2023/04/19 12:15:23;;;;;;;11.35;10.15;;;;;;;;;;5079672;28;20214;-59
2023/04/19 12:17:56;;;;;;;12.93;11.60;;;;;;;;;;5078863;28;20285;-60
2023/04/19 12:20:32;;;;;;;12.45;11.15;;;;;;;;;;5082199;28;20384;-61
2023/04/19 12:22:58;;;;;;;14.00;12.43;;;;;;;;;;5083242;28;20243;-61
2023/04/19 12:25:27;;;;;;;15.48;12.55;;;;;;;;;;5084368;28;20196;-61
2023/04/19 12:27:55;;;;;;;15.20;11.68;;;;;;;;;;5083904;28;20277;-62
2023/04/19 12:30:21;;;;;;;15.75;12.13;;;;;;;;;;5084312;28;20197;-62
2023/04/19 12:32:47;;;;;;;15.18;13.57;;;;;;;;;;5084237;28;20242;-61
2023/04/19 12:35:14;;;;;;;16.33;13.10;;;;;;;;;;5084185;28;20447;-61
2023/04/19 12:37:40;;;;;;;14.88;12.98;;;;;;;;;;5083917;28;20246;-61
2023/04/19 12:40:07;;;;;;;16.70;12.10;;;;;;;;;;5083925;28;20196;-61
2023/04/19 12:42:33;;;;;;;14.45;12.95;;;;;;;;;;5083625;28;20418;-62
2023/04/19 12:45:01;;;;;;;16.15;13.02;;;;;;;;;;5083796;28;20500;-60
2023/04/19 12:47:27;;;;;;;16.38;13.70;;;;;;;;;;5083367;28;20223;-61
2023/04/19 12:49:54;;;;;;;15.32;12.20;;;;;;;;;;5083558;28;20220;-62
2023/04/19 12:52:21;;;;;;;16.92;13.80;;;;;;;;;;5083905;28;20307;-62
2023/04/19 12:54:47;;;;;;;15.57;13.55;;;;;;;;;;5080628;28;20227;-61
2023/04/19 12:57:13;;;;;;;15.02;13.45;;;;;;;;;;5083077;28;20211;-61
2023/04/19 12:59:40;;;;;;;16.63;13.88;;;;;;;;;;5083638;28;20203;-62
2023/04/19 13:02:07;;;;;;;16.52;14.23;;;;;;;;;;5083014;28;20279;-61
2023/04/19 13:04:33;;;;;;;15.52;13.93;;;;;;;;;;5083284;28;20212;-61
2023/04/19 13:07:00;;;;;;;15.57;13.18;;;;;;;;;;5083231;28;20200;-61
2023/04/19 13:09:26;;;;;;;18.55;14.93;;;;;;;;;;5083119;28;20196;-61
2023/04/19 13:11:54;;;;;;;20.42;14.80;;;;;;;;;;5083166;28;20207;-61
2023/04/19 13:14:20;;;;;;;18.70;14.77;;;;;;;;;;5083294;28;20433;-62
2023/04/19 13:16:46;;;;;;;17.67;14.80;;;;;;;;;;5082926;28;20208;-61
2023/04/19 13:19:14;;;;;;;19.98;15.57;;;;;;;;;;5083067;28;20200;-61
2023/04/19 13:21:41;;;;;;;19.60;14.65;;;;;;;;;;5083173;28;20247;-61
2023/04/19 13:24:07;;;;;;;19.25;13.43;;;;;;;;;;5082266;28;20212;-61
2023/04/19 13:26:34;;;;;;;18.42;13.75;;;;;;;;;;5083172;28;20200;-61
2023/04/19 13:29:00;;;;;;;18.73;13.27;;;;;;;;;;5083070;28;20566;-61
2023/04/19 13:31:26;;;;;;;21.58;14.35;;;;;;;;;;5083251;28;20208;-61
2023/04/19 13:33:53;;;;;;;16.45;12.85;;;;;;;;;;5082922;28;20522;-61
2023/04/19 13:36:20;;;;;;;17.23;13.10;;;;;;;;;;5082988;28;20549;-62
2023/04/19 13:38:51;;;;;;;17.27;13.63;;;;;;;;;;5083395;28;20275;-61
2023/04/19 13:41:18;;;;;;;14.90;13.23;;;;;;;;;;5083176;28;20392;-61
2023/04/19 13:43:44;;;;;;;15.52;12.82;;;;;;;;;;5082806;28;20204;-61
2023/04/19 13:46:11;;;;;;;15.77;12.95;;;;;;;;;;5082757;28;20234;-61
2023/04/19 13:48:37;;;;;;;15.13;12.35;;;;;;;;;;5082672;28;20372;-61
2023/04/19 13:51:03;;;;;;;15.82;12.85;;;;;;;;;;5082462;28;20237;-61
2023/04/19 13:53:31;;;;;;;18.33;12.85;;;;;;;;;;5082958;28;20204;-61
2023/04/19 13:55:57;;;;;;;15.35;12.55;;;;;;;;;;5082486;28;20201;-61
2023/04/19 13:58:24;;;;;;;14.00;11.75;;;;;;;;;;5082462;28;20223;-61
2023/04/19 14:00:51;;;;;;;14.68;12.38;;;;;;;;;;5082367;28;20204;-61
2023/04/19 14:03:17;;;;;;;15.05;12.20;;;;;;;;;;5082477;28;20212;-61
2023/04/19 14:05:43;;;;;;;15.30;12.55;;;;;;;;;;5082432;28;20200;-61
2023/04/19 14:08:09;;;;;;;14.25;11.65;;;;;;;;;;5082303;28;20200;-61
2023/04/19 14:10:37;;;;;;;13.82;12.40;;;;;;;;;;5082508;28;20207;-61
2023/04/19 14:13:04;;;;;;;16.95;12.52;;;;;;;;;;5082653;28;20211;-61
2023/04/19 14:15:30;;;;;;;17.35;12.93;;;;;;;;;;5082704;28;20223;-61
2023/04/19 14:17:56;;;;;;;18.20;14.15;;;;;;;;;;5082079;28;20211;-61
2023/04/19 14:20:23;;;;;;;18.60;15.93;;;;;;;;;;5082177;28;20196;-62
2023/04/19 14:22:49;;;;;;;17.60;14.65;;;;;;;;;;5082274;28;20212;-61
2023/04/19 14:25:17;;;;;;;19.73;14.85;;;;;;;;;;5082415;28;20507;-61